sensor_id;sensor_type;location;lat;lon;timestamp;pressure;altitude;pressure_sealevel;temperature;humidity
65800;BME280;52544;48.116;11.660;2024-03-22T00:01:48;96348.16;;;6.65;100.00
65800;BME280;52544;48.116;11.660;2024-03-22T00:04:14;96347.50;;;6.61;100.00
65800;BME280;52544;48.116;11.660;2024-03-22T00:06:41;96331.53;;;6.64;100.00
65800;BME280;52544;48.116;11.660;2024-03-22T00:09:07;96332.94;;;6.70;100.00
65800;BME280;52544;48.116;11.660;2024-03-22T00:11:33;96339.31;;;6.66;100.00
65800;BME280;52544;48.116;11.660;2024-03-22T00:13:58;96334.28;;;6.63;100.00
65800;BME280;52544;48.116;11.660;2024-03-22T00:16:24;96334.84;;;6.68;100.00
65800;BME280;52544;48.116;11.660;2024-03-22T00:18:49;96334.00;;;6.67;100.00
65800;BME280;52544;48.116;11.660;2024-03-22T00:21:15;96334.28;;;6.63;100.00
65800;BME280;52544;48.116;11.660;2024-03-22T00:23:40;96343.16;;;6.60;100.00
65800;BME280;52544;48.116;11.660;2024-03-22T00:26:07;96336.03;;;6.62;100.00
65800;BME280;52544;48.116;11.660;2024-03-22T00:28:32;96337.75;;;6.63;100.00
65800;BME280;52544;48.116;11.660;2024-03-22T00:30:58;96331.97;;;6.57;100.00
65800;BME280;52544;48.116;11.660;2024-03-22T00:33:24;96336.97;;;6.61;100.00
65800;BME280;52544;48.116;11.660;2024-03-22T00:35:49;96332.81;;;6.57;100.00
65800;BME280;52544;48.116;11.660;2024-03-22T00:38:14;96330.97;;;6.59;100.00
65800;BME280;52544;48.116;11.660;2024-03-22T00:40:40;96330.28;;;6.56;100.00
65800;BME280;52544;48.116;11.660;2024-03-22T00:43:06;96325.59;;;6.61;100.00
65800;BME280;52544;48.116;11.660;2024-03-22T00:45:31;96317.53;;;6.64;100.00
65800;BME280;52544;48.116;11.660;2024-03-22T00:47:57;96317.81;;;6.59;100.00
65800;BME280;52544;48.116;11.660;2024-03-22T00:50:22;96311.78;;;6.57;100.00
65800;BME280;52544;48.116;11.660;2024-03-22T00:52:47;96308.88;;;6.62;100.00
65800;BME280;52544;48.116;11.660;2024-03-22T00:55:13;96302.59;;;6.64;100.00
65800;BME280;52544;48.116;11.660;2024-03-22T00:57:38;96297.63;;;6.60;100.00
65800;BME280;52544;48.116;11.660;2024-03-22T01:00:04;96289.91;;;6.57;100.00
65800;BME280;52544;48.116;11.660;2024-03-22T01:02:30;96297.22;;;6.51;100.00
65800;BME280;52544;48.116;11.660;2024-03-22T01:04:55;96299.16;;;6.48;100.00
65800;BME280;52544;48.116;11.660;2024-03-22T01:07:20;96298.59;;;6.43;100.00
65800;BME280;52544;48.116;11.660;2024-03-22T01:09:46;96291.44;;;6.45;100.00
65800;BME280;52544;48.116;11.660;2024-03-22T01:12:11;96283.75;;;6.42;100.00
65800;BME280;52544;48.116;11.660;2024-03-22T01:14:37;96284.25;;;6.33;100.00
65800;BME280;52544;48.116;11.660;2024-03-22T01:17:02;96279.78;;;6.35;100.00
65800;BME280;52544;48.116;11.660;2024-03-22T01:19:28;96281.63;;;6.33;100.00
65800;BME280;52544;48.116;11.660;2024-03-22T01:21:53;96272.63;;;6.37;100.00
65800;BME280;52544;48.116;11.660;2024-03-22T01:24:19;96264.16;;;6.32;100.00
65800;BME280;52544;48.116;11.660;2024-03-22T01:26:44;96273.53;;;6.21;100.00
65800;BME280;52544;48.116;11.660;2024-03-22T01:29:09;96269.28;;;6.19;100.00
65800;BME280;52544;48.116;11.660;2024-03-22T01:31:35;96270.81;;;6.07;100.00
65800;BME280;52544;48.116;11.660;2024-03-22T01:34:00;96265.50;;;6.09;100.00
65800;BME280;52544;48.116;11.660;2024-03-22T01:36:26;96264.66;;;6.08;100.00
65800;BME280;52544;48.116;11.660;2024-03-22T01:38:51;96261.00;;;6.11;100.00
65800;BME280;52544;48.116;11.660;2024-03-22T01:41:16;96260.66;;;6.01;100.00
65800;BME280;52544;48.116;11.660;2024-03-22T01:43:43;96266.78;;;6.01;100.00
65800;BME280;52544;48.116;11.660;2024-03-22T01:46:08;96260.56;;;6.03;100.00
65800;BME280;52544;48.116;11.660;2024-03-22T01:48:34;96257.47;;;5.96;100.00
65800;BME280;52544;48.116;11.660;2024-03-22T01:51:00;96261.88;;;5.95;100.00
65800;BME280;52544;48.116;11.660;2024-03-22T01:53:27;96254.38;;;5.88;100.00
65800;BME280;52544;48.116;11.660;2024-03-22T01:55:52;96261.22;;;5.90;100.00
65800;BME280;52544;48.116;11.660;2024-03-22T01:58:18;96251.94;;;5.85;100.00
65800;BME280;52544;48.116;11.660;2024-03-22T02:00:43;96247.44;;;5.87;100.00
65800;BME280;52544;48.116;11.660;2024-03-22T02:03:09;96250.50;;;5.79;100.00
65800;BME280;52544;48.116;11.660;2024-03-22T02:05:35;96253.81;;;5.83;100.00
65800;BME280;52544;48.116;11.660;2024-03-22T02:08:00;96254.38;;;5.88;100.00
65800;BME280;52544;48.116;11.660;2024-03-22T02:10:26;96250.53;;;5.95;100.00
65800;BME280;52544;48.116;11.660;2024-03-22T02:12:51;96243.56;;;5.94;100.00
65800;BME280;52544;48.116;11.660;2024-03-22T02:15:17;96241.09;;;5.91;100.00
65800;BME280;52544;48.116;11.660;2024-03-22T02:17:42;96234.13;;;5.90;100.00
65800;BME280;52544;48.116;11.660;2024-03-22T02:20:08;96233.03;;;5.94;100.00
65800;BME280;52544;48.116;11.660;2024-03-22T02:22:33;96227.72;;;5.95;100.00
65800;BME280;52544;48.116;11.660;2024-03-22T02:24:59;96231.69;;;5.87;100.00
65800;BME280;52544;48.116;11.660;2024-03-22T02:27:25;96230.75;;;5.88;100.00
65800;BME280;52544;48.116;11.660;2024-03-22T02:29:51;96224.91;;;5.83;100.00
65800;BME280;52544;48.116;11.660;2024-03-22T02:32:16;96228.44;;;5.82;100.00
65800;BME280;52544;48.116;11.660;2024-03-22T02:34:41;96222.59;;;5.76;100.00
65800;BME280;52544;48.116;11.660;2024-03-22T02:37:07;96222.19;;;5.68;100.00
65800;BME280;52544;48.116;11.660;2024-03-22T02:39:32;96222.97;;;5.70;100.00
65800;BME280;52544;48.116;11.660;2024-03-22T02:41:58;96218.97;;;5.63;100.00
65800;BME280;52544;48.116;11.660;2024-03-22T02:44:23;96211.63;;;5.54;100.00
65800;BME280;52544;48.116;11.660;2024-03-22T02:46:48;96212.72;;;5.50;100.00
65800;BME280;52544;48.116;11.660;2024-03-22T02:49:14;96211.78;;;5.51;100.00
65800;BME280;52544;48.116;11.660;2024-03-22T02:51:39;96215.75;;;5.42;100.00
65800;BME280;52544;48.116;11.660;2024-03-22T02:54:05;96208.31;;;5.35;100.00
65800;BME280;52544;48.116;11.660;2024-03-22T02:56:30;96208.50;;;5.32;100.00
65800;BME280;52544;48.116;11.660;2024-03-22T02:58:56;96215.34;;;5.34;100.00
65800;BME280;52544;48.116;11.660;2024-03-22T03:01:21;96200.19;;;5.23;100.00
65800;BME280;52544;48.116;11.660;2024-03-22T03:03:46;96208.66;;;5.29;100.00
65800;BME280;52544;48.116;11.660;2024-03-22T03:06:12;96199.84;;;5.30;100.00
65800;BME280;52544;48.116;11.660;2024-03-22T03:08:41;96189.34;;;5.30;100.00
65800;BME280;52544;48.116;11.660;2024-03-22T03:11:07;96194.94;;;5.23;100.00
65800;BME280;52544;48.116;11.660;2024-03-22T03:13:32;96183.59;;;5.23;100.00
65800;BME280;52544;48.116;11.660;2024-03-22T03:15:58;96181.63;;;5.26;100.00
65800;BME280;52544;48.116;11.660;2024-03-22T03:18:23;96181.88;;;5.22;100.00
65800;BME280;52544;48.116;11.660;2024-03-22T03:20:48;96178.59;;;5.18;100.00
65800;BME280;52544;48.116;11.660;2024-03-22T03:23:14;96181.38;;;5.15;100.00
65800;BME280;52544;48.116;11.660;2024-03-22T03:25:39;96182.78;;;5.05;100.00
65800;BME280;52544;48.116;11.660;2024-03-22T03:28:05;96177.91;;;4.99;100.00
65800;BME280;52544;48.116;11.660;2024-03-22T03:30:35;96173.84;;;4.93;100.00
65800;BME280;52544;48.116;11.660;2024-03-22T03:33:01;96172.06;;;4.94;100.00
65800;BME280;52544;48.116;11.660;2024-03-22T03:35:26;96181.06;;;4.88;100.00
65800;BME280;52544;48.116;11.660;2024-03-22T03:37:52;96182.94;;;4.86;100.00
65800;BME280;52544;48.116;11.660;2024-03-22T03:40:17;96170.69;;;4.87;100.00
65800;BME280;52544;48.116;11.660;2024-03-22T03:42:43;96172.38;;;4.88;100.00
65800;BME280;52544;48.116;11.660;2024-03-22T03:45:08;96160.88;;;4.90;100.00
65800;BME280;52544;48.116;11.660;2024-03-22T03:47:34;96154.63;;;4.93;100.00
65800;BME280;52544;48.116;11.660;2024-03-22T03:49:59;96162.50;;;4.93;100.00
65800;BME280;52544;48.116;11.660;2024-03-22T03:52:25;96157.56;;;4.87;100.00
65800;BME280;52544;48.116;11.660;2024-03-22T03:54:50;96157.13;;;4.79;100.00
65800;BME280;52544;48.116;11.660;2024-03-22T03:57:15;96157.28;;;4.75;100.00
65800;BME280;52544;48.116;11.660;2024-03-22T03:59:41;96157.28;;;4.75;100.00
65800;BME280;52544;48.116;11.660;2024-03-22T04:02:06;96146.19;;;4.70;100.00
65800;BME280;52544;48.116;11.660;2024-03-22T04:04:31;96152.13;;;4.74;100.00
65800;BME280;52544;48.116;11.660;2024-03-22T04:06:57;96147.81;;;4.73;100.00
65800;BME280;52544;48.116;11.660;2024-03-22T04:09:23;96148.81;;;4.70;100.00
65800;BME280;52544;48.116;11.660;2024-03-22T04:11:48;96143.41;;;4.73;100.00
65800;BME280;52544;48.116;11.660;2024-03-22T04:14:14;96146.72;;;4.77;100.00
65800;BME280;52544;48.116;11.660;2024-03-22T04:16:39;96144.00;;;4.79;100.00
65800;BME280;52544;48.116;11.660;2024-03-22T04:19:04;96141.94;;;4.85;100.00
65800;BME280;52544;48.116;11.660;2024-03-22T04:21:30;96138.22;;;4.89;100.00
65800;BME280;52544;48.116;11.660;2024-03-22T04:23:55;96125.69;;;4.94;100.00
65800;BME280;52544;48.116;11.660;2024-03-22T04:26:21;96124.66;;;4.97;100.00
65800;BME280;52544;48.116;11.660;2024-03-22T04:28:46;96123.16;;;4.93;100.00
65800;BME280;52544;48.116;11.660;2024-03-22T04:31:12;96122.63;;;4.86;100.00
65800;BME280;52544;48.116;11.660;2024-03-22T04:33:38;96117.28;;;4.88;100.00
65800;BME280;52544;48.116;11.660;2024-03-22T04:36:04;96130.59;;;4.85;100.00
65800;BME280;52544;48.116;11.660;2024-03-22T04:38:30;96122.78;;;4.83;100.00
65800;BME280;52544;48.116;11.660;2024-03-22T04:40:56;96131.50;;;4.84;100.00
65800;BME280;52544;48.116;11.660;2024-03-22T04:43:23;96129.91;;;4.81;100.00
65800;BME280;52544;48.116;11.660;2024-03-22T04:45:49;96127.53;;;4.76;100.00
65800;BME280;52544;48.116;11.660;2024-03-22T04:48:17;96127.69;;;4.73;100.00
65800;BME280;52544;48.116;11.660;2024-03-22T04:50:44;96124.13;;;4.74;100.00
65800;BME280;52544;48.116;11.660;2024-03-22T04:53:10;96126.16;;;4.69;100.00
65800;BME280;52544;48.116;11.660;2024-03-22T04:55:35;96124.13;;;4.74;100.00
65800;BME280;52544;48.116;11.660;2024-03-22T04:58:01;96125.81;;;4.75;100.00
65800;BME280;52544;48.116;11.660;2024-03-22T05:00:30;96129.06;;;4.81;100.00
65800;BME280;52544;48.116;11.660;2024-03-22T05:02:55;96119.00;;;4.89;100.00
65800;BME280;52544;48.116;11.660;2024-03-22T05:05:21;96124.50;;;5.00;100.00
65800;BME280;52544;48.116;11.660;2024-03-22T05:07:47;96129.06;;;5.12;100.00
65800;BME280;52544;48.116;11.660;2024-03-22T05:10:12;96126.88;;;5.20;100.00
65800;BME280;52544;48.116;11.660;2024-03-22T05:12:38;96122.13;;;5.27;100.00
65800;BME280;52544;48.116;11.660;2024-03-22T05:15:05;96119.75;;;5.38;100.00
65800;BME280;52544;48.116;11.660;2024-03-22T05:17:31;96117.06;;;5.40;100.00
65800;BME280;52544;48.116;11.660;2024-03-22T05:19:58;96113.22;;;5.45;100.00
65800;BME280;52544;48.116;11.660;2024-03-22T05:22:24;96118.22;;;5.50;100.00
65800;BME280;52544;48.116;11.660;2024-03-22T05:24:50;96117.84;;;5.56;100.00
65800;BME280;52544;48.116;11.660;2024-03-22T05:27:17;96111.59;;;5.59;100.00
65800;BME280;52544;48.116;11.660;2024-03-22T05:29:42;96107.94;;;5.61;100.00
65800;BME280;52544;48.116;11.660;2024-03-22T05:32:07;96116.13;;;5.71;100.00
65800;BME280;52544;48.116;11.660;2024-03-22T05:34:33;96118.31;;;5.79;100.00
65800;BME280;52544;48.116;11.660;2024-03-22T05:36:58;96122.53;;;5.81;100.00
65800;BME280;52544;48.116;11.660;2024-03-22T05:39:24;96119.47;;;5.89;100.00
65800;BME280;52544;48.116;11.660;2024-03-22T05:41:49;96125.31;;;5.94;100.00
65800;BME280;52544;48.116;11.660;2024-03-22T05:44:14;96117.09;;;6.00;100.00
65800;BME280;52544;48.116;11.660;2024-03-22T05:46:40;96107.00;;;6.08;100.00
65800;BME280;52544;48.116;11.660;2024-03-22T05:49:05;96103.31;;;6.11;100.00
65800;BME280;52544;48.116;11.660;2024-03-22T05:51:31;96105.88;;;6.12;100.00
65800;BME280;52544;48.116;11.660;2024-03-22T05:53:57;96106.63;;;6.14;100.00
65800;BME280;52544;48.116;11.660;2024-03-22T05:56:22;96102.97;;;6.17;100.00
65800;BME280;52544;48.116;11.660;2024-03-22T05:58:48;96101.06;;;6.19;100.00
65800;BME280;52544;48.116;11.660;2024-03-22T06:01:13;96088.50;;;6.24;100.00
65800;BME280;52544;48.116;11.660;2024-03-22T06:03:39;96091.72;;;6.29;100.00
65800;BME280;52544;48.116;11.660;2024-03-22T06:06:04;96087.31;;;6.30;100.00
65800;BME280;52544;48.116;11.660;2024-03-22T06:08:30;96091.50;;;6.32;100.00
65800;BME280;52544;48.116;11.660;2024-03-22T06:11:00;96096.69;;;6.34;100.00
65800;BME280;52544;48.116;11.660;2024-03-22T06:13:25;96090.31;;;6.38;100.00
65800;BME280;52544;48.116;11.660;2024-03-22T06:15:50;96093.03;;;6.36;100.00
65800;BME280;52544;48.116;11.660;2024-03-22T06:18:16;96087.47;;;6.41;100.00
65800;BME280;52544;48.116;11.660;2024-03-22T06:20:42;96081.94;;;6.45;100.00
65800;BME280;52544;48.116;11.660;2024-03-22T06:23:09;96086.19;;;6.48;100.00
65800;BME280;52544;48.116;11.660;2024-03-22T06:25:35;96091.25;;;6.51;100.00
65800;BME280;52544;48.116;11.660;2024-03-22T06:28:00;96082.25;;;6.55;100.00
65800;BME280;52544;48.116;11.660;2024-03-22T06:30:26;96093.44;;;6.59;100.00
65800;BME280;52544;48.116;11.660;2024-03-22T06:32:52;96083.75;;;6.59;100.00
65800;BME280;52544;48.116;11.660;2024-03-22T06:35:18;96081.00;;;6.61;100.00
65800;BME280;52544;48.116;11.660;2024-03-22T06:37:43;96082.69;;;6.62;100.00
65800;BME280;52544;48.116;11.660;2024-03-22T06:40:09;96089.00;;;6.59;100.00
65800;BME280;52544;48.116;11.660;2024-03-22T06:42:35;96072.84;;;6.65;100.00
65800;BME280;52544;48.116;11.660;2024-03-22T06:45:00;96078.00;;;6.81;100.00
65800;BME280;52544;48.116;11.660;2024-03-22T06:47:26;96077.22;;;6.93;100.00
65800;BME280;52544;48.116;11.660;2024-03-22T06:49:51;96078.97;;;7.07;100.00
65800;BME280;52544;48.116;11.660;2024-03-22T06:52:16;96076.41;;;7.20;100.00
65800;BME280;52544;48.116;11.660;2024-03-22T06:54:43;96077.00;;;7.38;100.00
65800;BME280;52544;48.116;11.660;2024-03-22T06:57:08;96079.50;;;7.54;100.00
65800;BME280;52544;48.116;11.660;2024-03-22T06:59:34;96082.81;;;7.70;100.00
65800;BME280;52544;48.116;11.660;2024-03-22T07:01:59;96073.56;;;7.90;100.00
65800;BME280;52544;48.116;11.660;2024-03-22T07:04:25;96074.34;;;8.05;100.00
65800;BME280;52544;48.116;11.660;2024-03-22T07:06:50;96077.72;;;8.19;100.00
65800;BME280;52544;48.116;11.660;2024-03-22T07:09:16;96067.19;;;8.45;100.00
65800;BME280;52544;48.116;11.660;2024-03-22T07:11:41;96068.44;;;8.65;100.00
65800;BME280;52544;48.116;11.660;2024-03-22T07:14:07;96070.88;;;8.68;100.00
65800;BME280;52544;48.116;11.660;2024-03-22T07:16:32;96069.47;;;9.00;100.00
65800;BME280;52544;48.116;11.660;2024-03-22T07:18:58;96063.84;;;9.05;100.00
65800;BME280;52544;48.116;11.660;2024-03-22T07:21:23;96061.34;;;9.27;100.00
65800;BME280;52544;48.116;11.660;2024-03-22T07:23:49;96062.50;;;9.23;100.00
65800;BME280;52544;48.116;11.660;2024-03-22T07:26:14;96062.63;;;9.46;100.00
65800;BME280;52544;48.116;11.660;2024-03-22T07:28:39;96064.22;;;9.48;100.00
65800;BME280;52544;48.116;11.660;2024-03-22T07:31:05;96060.41;;;9.64;100.00
65800;BME280;52544;48.116;11.660;2024-03-22T07:33:31;96062.56;;;9.94;100.00
65800;BME280;52544;48.116;11.660;2024-03-22T07:36:01;96059.75;;;10.08;100.00
65800;BME280;52544;48.116;11.660;2024-03-22T07:38:26;96066.09;;;9.94;100.00
65800;BME280;52544;48.116;11.660;2024-03-22T07:40:52;96065.69;;;9.88;100.00
65800;BME280;52544;48.116;11.660;2024-03-22T07:43:18;96055.44;;;10.07;100.00
65800;BME280;52544;48.116;11.660;2024-03-22T07:45:43;96065.66;;;10.23;100.00
65800;BME280;52544;48.116;11.660;2024-03-22T07:48:08;96062.81;;;10.26;100.00
65800;BME280;52544;48.116;11.660;2024-03-22T07:50:35;96060.31;;;10.24;100.00
65800;BME280;52544;48.116;11.660;2024-03-22T07:53:01;96059.34;;;10.25;100.00
65800;BME280;52544;48.116;11.660;2024-03-22T07:55:26;96061.69;;;10.17;100.00
65800;BME280;52544;48.116;11.660;2024-03-22T07:57:51;96064.34;;;10.17;100.00
65800;BME280;52544;48.116;11.660;2024-03-22T08:00:17;96061.06;;;10.14;100.00
65800;BME280;52544;48.116;11.660;2024-03-22T08:02:42;96055.50;;;10.30;100.00
65800;BME280;52544;48.116;11.660;2024-03-22T08:05:08;96050.44;;;10.26;100.00
65800;BME280;52544;48.116;11.660;2024-03-22T08:07:34;96050.69;;;10.35;100.00
65800;BME280;52544;48.116;11.660;2024-03-22T08:09:59;96042.06;;;10.55;100.00
65800;BME280;52544;48.116;11.660;2024-03-22T08:12:27;96043.25;;;10.73;100.00
65800;BME280;52544;48.116;11.660;2024-03-22T08:14:53;96045.53;;;11.00;100.00
65800;BME280;52544;48.116;11.660;2024-03-22T08:17:18;96036.25;;;11.06;100.00
65800;BME280;52544;48.116;11.660;2024-03-22T08:19:44;96042.03;;;11.00;100.00
65800;BME280;52544;48.116;11.660;2024-03-22T08:22:10;96040.25;;;11.00;100.00
65800;BME280;52544;48.116;11.660;2024-03-22T08:24:36;96037.44;;;11.13;100.00
65800;BME280;52544;48.116;11.660;2024-03-22T08:27:02;96037.09;;;11.50;100.00
65800;BME280;52544;48.116;11.660;2024-03-22T08:29:28;96027.44;;;11.92;100.00
65800;BME280;52544;48.116;11.660;2024-03-22T08:31:54;96030.34;;;12.10;100.00
65800;BME280;52544;48.116;11.660;2024-03-22T08:34:19;96032.44;;;12.28;100.00
65800;BME280;52544;48.116;11.660;2024-03-22T08:36:44;96026.97;;;12.50;100.00
65800;BME280;52544;48.116;11.660;2024-03-22T08:39:10;96022.72;;;12.68;100.00
65800;BME280;52544;48.116;11.660;2024-03-22T08:41:37;96023.59;;;12.79;100.00
65800;BME280;52544;48.116;11.660;2024-03-22T08:44:02;96023.91;;;12.85;100.00
65800;BME280;52544;48.116;11.660;2024-03-22T08:46:28;96028.13;;;12.97;100.00
65800;BME280;52544;48.116;11.660;2024-03-22T08:48:53;96019.19;;;13.08;100.00
65800;BME280;52544;48.116;11.660;2024-03-22T08:51:19;96012.13;;;13.18;100.00
65800;BME280;52544;48.116;11.660;2024-03-22T08:53:44;96002.25;;;13.40;100.00
65800;BME280;52544;48.116;11.660;2024-03-22T08:56:10;96001.91;;;13.14;100.00
65800;BME280;52544;48.116;11.660;2024-03-22T08:58:36;96007.72;;;13.48;100.00
65800;BME280;52544;48.116;11.660;2024-03-22T09:01:01;96001.97;;;13.43;100.00
65800;BME280;52544;48.116;11.660;2024-03-22T09:03:27;96008.41;;;13.50;100.00
65800;BME280;52544;48.116;11.660;2024-03-22T09:05:53;95995.81;;;13.91;100.00
65800;BME280;52544;48.116;11.660;2024-03-22T09:08:19;96008.00;;;13.84;100.00
65800;BME280;52544;48.116;11.660;2024-03-22T09:10:45;95995.09;;;13.89;100.00
65800;BME280;52544;48.116;11.660;2024-03-22T09:13:10;95993.97;;;14.01;100.00
65800;BME280;52544;48.116;11.660;2024-03-22T09:15:38;95995.06;;;14.18;100.00
65800;BME280;52544;48.116;11.660;2024-03-22T09:18:03;95994.75;;;14.31;100.00
65800;BME280;52544;48.116;11.660;2024-03-22T09:20:29;95976.13;;;14.31;98.85
65800;BME280;52544;48.116;11.660;2024-03-22T09:22:54;95981.69;;;14.47;94.95
65800;BME280;52544;48.116;11.660;2024-03-22T09:25:20;95973.59;;;14.39;96.56
65800;BME280;52544;48.116;11.660;2024-03-22T09:27:45;95982.22;;;14.70;93.92
65800;BME280;52544;48.116;11.660;2024-03-22T09:30:11;95978.59;;;14.61;88.73
65800;BME280;52544;48.116;11.660;2024-03-22T09:32:37;95974.41;;;14.86;87.18
65800;BME280;52544;48.116;11.660;2024-03-22T09:35:03;95967.50;;;14.93;86.15
65800;BME280;52544;48.116;11.660;2024-03-22T09:37:29;95966.41;;;14.86;91.28
65800;BME280;52544;48.116;11.660;2024-03-22T09:39:54;95968.75;;;14.71;88.16
65800;BME280;52544;48.116;11.660;2024-03-22T09:42:22;95974.41;;;14.86;91.79
65800;BME280;52544;48.116;11.660;2024-03-22T09:44:48;95965.56;;;15.13;92.19
65800;BME280;52544;48.116;11.660;2024-03-22T09:47:18;95969.53;;;14.82;87.23
65800;BME280;52544;48.116;11.660;2024-03-22T09:49:43;95964.06;;;14.36;89.29
65800;BME280;52544;48.116;11.660;2024-03-22T09:52:14;95970.19;;;14.56;90.72
65800;BME280;52544;48.116;11.660;2024-03-22T09:54:43;95963.84;;;14.67;89.46
65800;BME280;52544;48.116;11.660;2024-03-22T09:57:14;95959.78;;;14.90;86.35
65800;BME280;52544;48.116;11.660;2024-03-22T09:59:42;95955.38;;;15.44;84.82
65800;BME280;52544;48.116;11.660;2024-03-22T10:02:10;95950.34;;;15.41;80.54
65800;BME280;52544;48.116;11.660;2024-03-22T10:04:37;95938.38;;;15.99;83.03
65800;BME280;52544;48.116;11.660;2024-03-22T10:07:03;95933.31;;;16.40;78.67
65800;BME280;52544;48.116;11.660;2024-03-22T10:09:29;95936.84;;;16.22;71.51
65800;BME280;52544;48.116;11.660;2024-03-22T10:11:56;95920.66;;;16.50;68.94
65800;BME280;52544;48.116;11.660;2024-03-22T10:14:21;95923.91;;;16.96;69.81
65800;BME280;52544;48.116;11.660;2024-03-22T10:16:47;95924.16;;;17.27;64.59
65800;BME280;52544;48.116;11.660;2024-03-22T10:19:12;95925.44;;;17.15;62.24
65800;BME280;52544;48.116;11.660;2024-03-22T10:21:37;95917.66;;;16.79;63.92
65800;BME280;52544;48.116;11.660;2024-03-22T10:24:03;95921.66;;;16.15;63.61
65800;BME280;52544;48.116;11.660;2024-03-22T10:26:29;95914.34;;;16.25;64.18
65800;BME280;52544;48.116;11.660;2024-03-22T10:28:54;95918.75;;;16.08;65.82
65800;BME280;52544;48.116;11.660;2024-03-22T10:31:20;95905.13;;;16.80;65.73
65800;BME280;52544;48.116;11.660;2024-03-22T10:33:46;95904.88;;;17.07;63.54
65800;BME280;52544;48.116;11.660;2024-03-22T10:36:12;95905.47;;;17.43;62.77
65800;BME280;52544;48.116;11.660;2024-03-22T10:38:39;95909.09;;;17.18;59.55
65800;BME280;52544;48.116;11.660;2024-03-22T10:41:05;95906.50;;;16.84;61.06
65800;BME280;52544;48.116;11.660;2024-03-22T10:43:30;95904.59;;;17.35;62.01
65800;BME280;52544;48.116;11.660;2024-03-22T10:46:00;95897.94;;;17.47;63.21
65800;BME280;52544;48.116;11.660;2024-03-22T10:48:28;95901.56;;;17.13;60.99
65800;BME280;52544;48.116;11.660;2024-03-22T10:50:55;95907.97;;;17.45;63.12
65800;BME280;52544;48.116;11.660;2024-03-22T10:53:24;95897.84;;;16.98;64.39
65800;BME280;52544;48.116;11.660;2024-03-22T10:55:51;95902.00;;;16.92;64.30
65800;BME280;52544;48.116;11.660;2024-03-22T10:58:21;95887.69;;;17.10;63.77
65800;BME280;52544;48.116;11.660;2024-03-22T11:00:46;95876.91;;;17.93;65.29
65800;BME280;52544;48.116;11.660;2024-03-22T11:03:15;95881.91;;;17.63;60.38
65800;BME280;52544;48.116;11.660;2024-03-22T11:05:47;95873.19;;;17.45;60.72
65800;BME280;52544;48.116;11.660;2024-03-22T11:08:13;95879.22;;;17.47;60.74
65800;BME280;52544;48.116;11.660;2024-03-22T11:10:39;95874.16;;;17.19;60.40
65800;BME280;52544;48.116;11.660;2024-03-22T11:13:05;95870.16;;;17.23;62.36
65800;BME280;52544;48.116;11.660;2024-03-22T11:15:32;95861.81;;;17.27;61.25
65800;BME280;52544;48.116;11.660;2024-03-22T11:17:58;95861.50;;;17.87;59.64
65800;BME280;52544;48.116;11.660;2024-03-22T11:20:27;95852.59;;;18.11;57.67
65800;BME280;52544;48.116;11.660;2024-03-22T11:22:55;95855.03;;;18.29;58.43
65800;BME280;52544;48.116;11.660;2024-03-22T11:25:21;95855.03;;;18.37;57.21
65800;BME280;52544;48.116;11.660;2024-03-22T11:27:46;95847.84;;;18.29;56.78
65800;BME280;52544;48.116;11.660;2024-03-22T11:30:12;95846.22;;;18.59;56.01
65800;BME280;52544;48.116;11.660;2024-03-22T11:32:39;95844.69;;;19.04;56.35
65800;BME280;52544;48.116;11.660;2024-03-22T11:35:13;95830.56;;;19.10;53.48
65800;BME280;52544;48.116;11.660;2024-03-22T11:37:39;95837.84;;;18.23;54.86
65800;BME280;52544;48.116;11.660;2024-03-22T11:40:05;95824.97;;;18.10;56.71
65800;BME280;52544;48.116;11.660;2024-03-22T11:42:33;95834.44;;;18.77;57.51
65800;BME280;52544;48.116;11.660;2024-03-22T11:44:59;95816.19;;;18.72;53.29
65800;BME280;52544;48.116;11.660;2024-03-22T11:47:25;95811.72;;;18.95;52.89
65800;BME280;52544;48.116;11.660;2024-03-22T11:49:50;95813.16;;;18.36;53.88
65800;BME280;52544;48.116;11.660;2024-03-22T11:52:16;95803.59;;;18.81;54.84
65800;BME280;52544;48.116;11.660;2024-03-22T11:54:41;95808.44;;;18.46;53.87
65800;BME280;52544;48.116;11.660;2024-03-22T11:57:08;95799.66;;;18.60;56.27
65800;BME280;52544;48.116;11.660;2024-03-22T11:59:34;95793.91;;;19.26;55.53
65800;BME280;52544;48.116;11.660;2024-03-22T12:02:00;95782.31;;;19.71;53.72
65800;BME280;52544;48.116;11.660;2024-03-22T12:04:25;95778.69;;;19.64;52.68
65800;BME280;52544;48.116;11.660;2024-03-22T12:06:51;95767.69;;;19.73;51.63
65800;BME280;52544;48.116;11.660;2024-03-22T12:09:18;95768.22;;;19.08;53.00
65800;BME280;52544;48.116;11.660;2024-03-22T12:11:43;95768.88;;;19.10;53.27
65800;BME280;52544;48.116;11.660;2024-03-22T12:14:09;95757.94;;;19.35;53.61
65800;BME280;52544;48.116;11.660;2024-03-22T12:16:34;95757.19;;;19.26;51.58
65800;BME280;52544;48.116;11.660;2024-03-22T12:18:59;95749.38;;;19.16;50.62
65800;BME280;52544;48.116;11.660;2024-03-22T12:21:25;95742.56;;;19.66;52.55
65800;BME280;52544;48.116;11.660;2024-03-22T12:23:50;95746.13;;;19.44;53.37
65800;BME280;52544;48.116;11.660;2024-03-22T12:26:16;95740.41;;;19.47;53.91
65800;BME280;52544;48.116;11.660;2024-03-22T12:28:41;95739.81;;;19.37;54.06
65800;BME280;52544;48.116;11.660;2024-03-22T12:31:08;95731.00;;;19.66;52.35
65800;BME280;52544;48.116;11.660;2024-03-22T12:33:33;95719.63;;;19.79;53.53
65800;BME280;52544;48.116;11.660;2024-03-22T12:35:59;95726.25;;;19.15;53.53
65800;BME280;52544;48.116;11.660;2024-03-22T12:38:25;95729.78;;;18.93;52.74
65800;BME280;52544;48.116;11.660;2024-03-22T12:40:50;95713.03;;;18.37;54.07